Time;durP1;ratioP1;P1;durP2;ratioP2;P2;SDS_P1;SDS_P2;PMS_P1;PMS_P2;Temp;Humidity;BMP_temperature;BMP_pressure;BME280_temperature;BME280_humidity;BME280_pressure;Samples;Min_cycle;Max_cycle;Signal;HPM_P1;HPM_P2
2022/01/01 00:02:23;;;;;;;77.85;36.65;;;12.00;99.90;;;;;;5086926;28;20040;-80
2022/01/01 00:04:49;;;;;;;56.08;34.55;;;11.40;99.90;;;;;;5083506;28;20056;-80
2022/01/01 00:07:16;;;;;;;57.17;33.95;;;10.90;99.90;;;;;;5067660;28;20056;-79
2022/01/01 00:09:43;;;;;;;75.03;41.47;;;9.90;99.90;;;;;;5067868;28;20048;-79
2022/01/01 00:12:11;;;;;;;57.25;32.50;;;9.80;99.90;;;;;;5071286;28;20048;-79
2022/01/01 00:14:37;;;;;;;71.25;32.38;;;9.60;99.90;;;;;;5076913;28;20036;-77
2022/01/01 00:17:04;;;;;;;65.32;32.58;;;9.50;99.90;;;;;;5074571;28;20044;-81
2022/01/01 00:19:31;;;;;;;56.65;30.70;;;10.40;99.90;;;;;;5075677;28;20080;-81
2022/01/01 00:21:57;;;;;;;52.58;31.70;;;10.10;99.90;;;;;;5094856;28;20043;-81
2022/01/01 00:24:23;;;;;;;67.57;34.58;;;10.70;99.90;;;;;;5094689;28;20055;-81
2022/01/01 00:26:49;;;;;;;59.75;31.90;;;10.00;99.90;;;;;;5093641;28;20040;-81
2022/01/01 00:29:14;;;;;;;65.10;30.30;;;10.00;99.90;;;;;;5093426;28;20024;-81
2022/01/01 00:31:40;;;;;;;64.47;33.97;;;9.90;99.90;;;;;;5094519;28;20056;-82
2022/01/01 00:34:06;;;;;;;59.88;30.73;;;9.80;99.90;;;;;;5076731;28;20075;-82
2022/01/01 00:36:32;;;;;;;59.00;34.17;;;10.10;99.90;;;;;;5094287;28;20044;-81
2022/01/01 00:38:58;;;;;;;67.03;33.17;;;9.50;99.90;;;;;;5094698;28;20140;-81
2022/01/01 00:41:24;;;;;;;61.40;33.42;;;9.40;99.90;;;;;;5083468;28;20504;-81
2022/01/01 00:43:50;;;;;;;65.35;29.88;;;11.50;99.90;;;;;;5074120;28;20044;-81
2022/01/01 00:46:16;;;;;;;62.03;28.67;;;9.60;99.90;;;;;;5073804;28;20508;-81
2022/01/01 00:48:41;;;;;;;63.25;25.88;;;9.50;99.90;;;;;;5086901;28;20040;-79
2022/01/01 00:51:07;;;;;;;51.90;29.35;;;8.60;99.90;;;;;;5095898;28;20415;-80
2022/01/01 00:53:32;;;;;;;56.30;29.88;;;9.60;99.90;;;;;;5077407;28;20101;-81
2022/01/01 00:55:58;;;;;;;59.08;28.10;;;;;;;;;;5076378;28;20515;-81
2022/01/01 00:58:24;;;;;;;60.33;26.35;;;9.60;99.90;;;;;;5095170;28;20039;-81
2022/01/01 01:00:50;;;;;;;56.45;29.63;;;9.30;99.90;;;;;;5094027;28;20492;-81
2022/01/01 01:03:17;;;;;;;61.88;31.02;;;11.50;99.90;;;;;;5076589;28;20078;-81
2022/01/01 01:05:45;;;;;;;63.88;29.42;;;9.30;99.90;;;;;;5093190;28;20040;-81
2022/01/01 01:08:12;;;;;;;53.70;28.73;;;10.30;99.90;;;;;;5093412;28;20040;-81
2022/01/01 01:10:38;;;;;;;61.88;28.83;;;9.50;99.90;;;;;;5094192;28;20044;-80
2022/01/01 01:13:05;;;;;;;65.25;38.25;;;;;;;;;;5093727;28;20119;-80
2022/01/01 01:15:32;;;;;;;72.45;35.75;;;9.40;99.90;;;;;;5092259;28;20052;-80
2022/01/01 01:17:58;;;;;;;66.22;36.33;;;9.30;99.90;;;;;;5093468;28;20040;-81
2022/01/01 01:20:26;;;;;;;47.88;25.35;;;9.30;99.90;;;;;;5062944;28;20051;-81
2022/01/01 01:22:52;;;;;;;50.67;21.20;;;9.50;99.90;;;;;;5071533;28;20082;-80
2022/01/01 01:25:19;;;;;;;49.00;20.50;;;11.20;99.90;;;;;;5056325;28;20485;-79
2022/01/01 01:27:45;;;;;;;52.60;21.83;;;9.20;99.90;;;;;;5090477;28;20047;-80
2022/01/01 01:30:14;;;;;;;53.03;21.80;;;9.30;99.90;;;;;;5085359;28;20477;-81
2022/01/01 01:32:40;;;;;;;50.08;17.30;;;9.30;99.90;;;;;;5093472;28;20127;-82
2022/01/01 01:35:06;;;;;;;62.28;27.15;;;9.30;99.90;;;;;;5080057;28;20518;-81
2022/01/01 01:37:32;;;;;;;78.22;37.88;;;9.30;99.90;;;;;;5072241;28;20048;-81
2022/01/01 01:39:58;;;;;;;72.55;32.08;;;9.20;99.90;;;;;;5073030;28;20037;-81
2022/01/01 01:42:27;;;;;;;53.15;26.58;;;11.00;99.90;;;;;;5072956;28;20062;-81
2022/01/01 01:44:54;;;;;;;52.90;27.98;;;9.30;99.90;;;;;;5067197;28;20081;-81
2022/01/01 01:47:29;;;;;;;59.95;31.48;;;11.30;99.90;;;;;;5092950;28;20048;-80
2022/01/01 01:49:56;;;;;;;54.45;25.02;;;9.20;99.90;;;;;;5092432;28;20124;-80
2022/01/01 01:52:23;;;;;;;52.58;21.85;;;11.30;99.90;;;;;;5092319;28;20366;-81
2022/01/01 01:54:49;;;;;;;56.95;23.60;;;9.20;99.90;;;;;;5075570;28;20039;-81
2022/01/01 01:57:15;;;;;;;70.43;27.45;;;9.20;99.90;;;;;;5091991;28;20036;-81
2022/01/01 01:59:41;;;;;;;69.93;30.17;;;9.10;99.90;;;;;;5092466;28;20507;-81
2022/01/01 02:02:07;;;;;;;59.97;29.77;;;9.20;99.90;;;;;;5092759;28;20048;-81
2022/01/01 02:04:33;;;;;;;66.40;30.52;;;11.60;99.90;;;;;;5091855;28;20051;-81
2022/01/01 02:06:59;;;;;;;67.70;29.92;;;9.20;99.90;;;;;;5092585;28;20394;-81
2022/01/01 02:09:25;;;;;;;75.53;32.67;;;9.10;99.90;;;;;;5075737;28;20036;-81
2022/01/01 02:11:52;;;;;;;101.72;51.00;;;9.10;99.90;;;;;;5091448;28;20044;-81
2022/01/01 02:19:19;;;;;;;83.25;37.17;;;8.70;99.90;;;;;;5088498;28;20049;-81
2022/01/01 02:21:45;;;;;;;157.75;78.88;;;10.00;99.90;;;;;;5072282;28;20055;-81
2022/01/01 02:24:11;;;;;;;95.20;50.95;;;9.10;99.90;;;;;;5072255;28;20401;-81
2022/01/01 02:26:36;;;;;;;115.43;57.65;;;10.90;99.90;;;;;;5071478;28;20047;-81
2022/01/01 02:29:03;;;;;;;127.60;69.93;;;11.90;99.90;;;;;;5078205;28;20478;-82
2022/01/01 02:31:31;;;;;;;101.97;51.88;;;10.40;99.90;;;;;;5083707;28;20048;-82
2022/01/01 02:34:05;;;;;;;87.38;47.35;;;9.60;99.90;;;;;;5091421;28;20048;-80
2022/01/01 02:36:37;;;;;;;98.88;48.05;;;9.20;99.90;;;;;;5091934;28;20040;-77
2022/01/01 02:39:14;;;;;;;100.35;47.58;;;9.50;99.90;;;;;;5092280;28;20131;-75
2022/01/01 02:41:40;;;;;;;93.75;45.95;;;;;;;;;;5090680;28;20087;-73
2022/01/01 02:44:06;;;;;;;98.25;48.78;;;9.10;99.90;;;;;;5091663;28;20515;-71
2022/01/01 02:46:33;;;;;;;93.80;45.70;;;9.50;99.90;;;;;;5075571;28;20067;-72
2022/01/01 02:48:59;;;;;;;89.47;49.03;;;8.90;99.90;;;;;;5054960;28;20098;-74
2022/01/01 02:51:25;;;;;;;105.10;52.10;;;;;;;;;;5071666;28;20041;-77
2022/01/01 02:53:50;;;;;;;94.95;49.67;;;8.90;99.90;;;;;;5066011;28;20044;-73
2022/01/01 02:56:16;;;;;;;102.40;50.45;;;9.00;99.90;;;;;;5091263;28;20050;-75
2022/01/01 02:58:42;;;;;;;86.55;48.08;;;9.00;99.90;;;;;;5077927;28;20045;-74
2022/01/01 03:01:09;;;;;;;93.47;47.17;;;8.90;99.90;;;;;;5070616;28;20123;-74
2022/01/01 03:03:35;;;;;;;81.97;45.47;;;9.10;99.90;;;;;;5071378;28;20060;-73
2022/01/01 03:06:00;;;;;;;80.60;41.25;;;8.90;99.90;;;;;;5071779;28;20045;-74
2022/01/01 03:08:26;;;;;;;78.00;37.17;;;9.20;99.90;;;;;;5070245;28;20042;-75
2022/01/01 03:10:52;;;;;;;75.00;35.53;;;9.20;99.90;;;;;;5085643;28;20047;-81
2022/01/01 03:13:18;;;;;;;76.32;35.50;;;9.10;99.90;;;;;;5092000;28;20040;-80
2022/01/01 03:15:44;;;;;;;74.82;37.92;;;8.90;99.90;;;;;;5091968;28;20433;-80
2022/01/01 03:18:10;;;;;;;65.30;33.08;;;9.20;99.90;;;;;;5091083;28;20132;-80
2022/01/01 03:20:36;;;;;;;73.65;31.63;;;9.10;99.90;;;;;;5091082;28;20093;-81
2022/01/01 03:23:03;;;;;;;81.10;35.00;;;9.10;99.90;;;;;;5067696;28;20039;-81
2022/01/01 03:25:29;;;;;;;76.05;31.85;;;9.20;99.90;;;;;;5084503;28;20047;-81
2022/01/01 03:27:54;;;;;;;70.07;33.55;;;9.40;99.90;;;;;;5091080;28;20046;-81
2022/01/01 03:30:20;;;;;;;78.07;35.55;;;9.20;99.90;;;;;;5090428;28;20036;-80
2022/01/01 03:32:46;;;;;;;109.32;55.53;;;9.30;99.90;;;;;;5090997;28;20052;-81
2022/01/01 03:35:11;;;;;;;90.95;44.80;;;9.20;99.90;;;;;;5091431;28;20055;-81
2022/01/01 03:37:37;;;;;;;79.32;33.38;;;9.20;99.90;;;;;;5086154;28;20539;-81
2022/01/01 03:40:04;;;;;;;78.50;31.42;;;9.20;99.90;;;;;;5082680;28;20044;-81
2022/01/01 03:42:30;;;;;;;88.35;35.38;;;9.30;99.90;;;;;;5074620;28;20044;-81
2022/01/01 03:44:56;;;;;;;81.32;34.60;;;9.30;99.90;;;;;;5073857;28;20051;-81
2022/01/01 03:47:21;;;;;;;78.60;38.88;;;9.30;99.90;;;;;;5074236;28;20443;-81
2022/01/01 03:49:49;;;;;;;91.75;38.58;;;8.80;99.90;;;;;;5090168;28;20040;-81
2022/01/01 03:52:15;;;;;;;85.70;37.80;;;9.30;99.90;;;;;;5090106;28;20076;-80
2022/01/01 03:54:41;;;;;;;69.05;35.10;;;9.30;99.90;;;;;;5090071;28;20032;-81
2022/01/01 03:57:07;;;;;;;85.30;37.13;;;9.00;99.90;;;;;;5073210;28;20096;-81
2022/01/01 03:59:33;;;;;;;101.80;39.35;;;9.10;99.90;;;;;;5074161;28;20040;-81
2022/01/01 04:01:59;;;;;;;88.22;43.90;;;9.30;99.90;;;;;;5090820;28;20085;-81
2022/01/01 04:04:26;;;;;;;101.05;49.15;;;9.30;99.90;;;;;;5090063;28;20102;-81
2022/01/01 04:06:52;;;;;;;107.30;49.53;;;10.50;99.90;;;;;;5090719;28;20160;-81
2022/01/01 04:09:19;;;;;;;94.72;41.72;;;9.20;99.90;;;;;;5077726;28;20506;-81
2022/01/01 04:11:44;;;;;;;97.50;46.75;;;9.00;99.90;;;;;;5073599;28;20032;-81
2022/01/01 04:14:12;;;;;;;94.25;43.65;;;9.10;99.90;;;;;;5073822;28;20046;-81
2022/01/01 04:16:38;;;;;;;87.00;44.17;;;9.40;99.90;;;;;;5087627;28;20040;-81
2022/01/01 04:19:04;;;;;;;119.03;63.78;;;11.30;99.90;;;;;;5069556;28;20481;-81
2022/01/01 04:21:30;;;;;;;126.50;60.85;;;9.90;99.90;;;;;;5070587;28;20037;-82
2022/01/01 04:23:55;;;;;;;104.80;42.05;;;9.40;99.90;;;;;;5074677;28;20036;-81
2022/01/01 04:26:21;;;;;;;106.13;44.45;;;9.30;99.90;;;;;;5089647;28;20036;-81
2022/01/01 04:28:47;;;;;;;99.43;42.08;;;9.30;99.90;;;;;;5090613;28;20441;-81
2022/01/01 04:31:15;;;;;;;99.50;40.35;;;12.10;99.90;;;;;;5089752;28;20128;-81
2022/01/01 04:33:41;;;;;;;98.78;40.72;;;9.40;99.90;;;;;;5090079;28;20044;-81
2022/01/01 04:36:07;;;;;;;88.53;36.45;;;9.40;99.90;;;;;;5090730;28;20036;-80
2022/01/01 04:38:40;;;;;;;86.68;41.05;;;9.40;99.90;;;;;;5090292;28;20480;-81
2022/01/01 04:41:14;;;;;;;81.00;37.40;;;11.40;99.90;;;;;;5089586;28;20411;-81
2022/01/01 04:43:41;;;;;;;63.70;32.50;;;9.60;99.90;;;;;;5073949;28;20094;-81
2022/01/01 04:46:07;;;;;;;77.30;34.30;;;9.40;99.90;;;;;;5084925;28;20073;-81
2022/01/01 04:48:37;;;;;;;79.70;33.28;;;9.40;99.90;;;;;;5053176;28;20040;-80
2022/01/01 04:51:06;;;;;;;71.72;33.45;;;9.50;99.90;;;;;;5069940;28;20044;-81
2022/01/01 04:53:31;;;;;;;73.93;31.45;;;9.40;99.90;;;;;;5074621;28;20051;-82
2022/01/01 04:55:59;;;;;;;86.18;34.05;;;9.50;99.90;;;;;;5090304;28;20040;-81
2022/01/01 04:58:24;;;;;;;76.70;36.67;;;12.50;99.90;;;;;;5074273;28;20082;-81
2022/01/01 05:00:50;;;;;;;99.00;44.67;;;9.60;99.90;;;;;;5088796;28;20476;-81
2022/01/01 05:03:16;;;;;;;104.22;54.75;;;9.60;99.90;;;;;;5093639;28;20040;-81
2022/01/01 05:05:41;;;;;;;114.28;58.63;;;9.60;99.90;;;;;;5094025;28;20136;-80
2022/01/01 05:08:07;;;;;;;103.88;50.70;;;9.60;99.90;;;;;;5092862;28;20039;-81
2022/01/01 05:10:32;;;;;;;102.22;49.78;;;9.60;99.90;;;;;;5093722;28;20108;-81
2022/01/01 05:12:58;;;;;;;127.30;53.17;;;9.60;99.90;;;;;;5093221;28;20043;-81
2022/01/01 05:15:24;;;;;;;124.13;50.90;;;10.00;99.90;;;;;;5092610;28;20067;-81
2022/01/01 05:17:49;;;;;;;134.27;56.17;;;11.00;99.90;;;;;;5093344;28;20051;-81
2022/01/01 05:20:15;;;;;;;134.65;55.75;;;9.50;99.90;;;;;;5093540;28;20412;-81
2022/01/01 05:22:41;;;;;;;129.23;55.50;;;9.70;99.90;;;;;;5093107;28;20071;-81
2022/01/01 05:25:07;;;;;;;133.35;52.35;;;9.60;99.90;;;;;;5093606;28;20047;-81
2022/01/01 05:27:35;;;;;;;104.38;44.40;;;9.60;99.90;;;;;;5076915;28;20048;-81
2022/01/01 05:30:01;;;;;;;117.05;48.50;;;9.20;99.90;;;;;;5072432;28;20066;-81
2022/01/01 05:32:26;;;;;;;86.40;36.38;;;9.20;99.90;;;;;;5072561;28;20047;-81
2022/01/01 05:34:52;;;;;;;136.35;46.70;;;9.40;99.90;;;;;;5073062;28;20045;-81
2022/01/01 05:37:18;;;;;;;105.38;39.88;;;12.50;99.90;;;;;;5074695;28;20055;-81
2022/01/01 05:39:43;;;;;;;106.60;38.17;;;9.50;99.90;;;;;;5093563;28;20044;-81
2022/01/01 05:42:09;;;;;;;99.22;36.50;;;10.50;99.90;;;;;;5082495;28;20060;-81
2022/01/01 05:44:34;;;;;;;106.50;36.13;;;10.30;99.90;;;;;;5072453;28;20043;-81
2022/01/01 05:47:01;;;;;;;85.22;32.30;;;;;;;;;;5072712;28;20489;-81
2022/01/01 05:49:26;;;;;;;94.57;32.67;;;10.10;99.90;;;;;;5071951;28;20044;-82
2022/01/01 05:51:52;;;;;;;81.60;31.27;;;11.90;99.90;;;;;;5056888;28;20036;-81
2022/01/01 05:54:17;;;;;;;81.10;31.08;;;10.20;99.90;;;;;;5092871;28;20381;-82
2022/01/01 05:56:43;;;;;;;83.32;30.88;;;;;;;;;;5066637;28;20123;-82
2022/01/01 05:59:09;;;;;;;80.40;31.33;;;;;;;;;;5072661;28;20052;-82
2022/01/01 06:01:35;;;;;;;97.78;31.60;;;;;;;;;;5072371;28;20059;-81
2022/01/01 06:04:01;;;;;;;85.63;32.08;;;;;;;;;;5071617;28;20048;-81
2022/01/01 06:06:27;;;;;;;82.55;30.85;;;;;;;;;;5086652;28;20044;-80
2022/01/01 06:08:53;;;;;;;70.25;29.05;;;;;;;;;;5091808;28;20085;-81
2022/01/01 06:11:19;;;;;;;79.82;28.38;;;;;;;;;;5092157;28;20405;-80
2022/01/01 06:13:45;;;;;;;67.13;28.20;;;;;;;;;;5092705;28;20044;-80
2022/01/01 06:16:11;;;;;;;69.50;27.30;;;;;;;;;;5091745;28;20043;-81
2022/01/01 06:18:37;;;;;;;65.10;25.42;;;;;;;;;;5091762;28;20052;-81
2022/01/01 06:21:04;;;;;;;73.05;25.27;;;10.40;99.90;;;;;;5075835;28;20396;-81
2022/01/01 06:23:29;;;;;;;54.72;22.48;;;10.00;99.90;;;;;;5092400;28;20076;-81
2022/01/01 06:25:55;;;;;;;55.95;24.95;;;10.20;99.90;;;;;;5091391;28;20512;-80
2022/01/01 06:28:21;;;;;;;59.72;23.85;;;;;;;;;;5092201;28;20115;-80
2022/01/01 06:30:47;;;;;;;53.42;20.77;;;;;;;;;;5091527;28;20052;-80
2022/01/01 06:33:15;;;;;;;54.47;21.98;;;10.50;99.90;;;;;;5094707;28;20035;-80
2022/01/01 06:35:42;;;;;;;45.67;21.10;;;;;;;;;;5091562;28;20127;-79
2022/01/01 06:38:08;;;;;;;60.92;23.60;;;;;;;;;;5075268;28;20044;-79
2022/01/01 06:40:35;;;;;;;42.53;18.05;;;10.60;99.90;;;;;;5090991;28;20405;-81
2022/01/01 06:43:01;;;;;;;47.40;19.20;;;10.50;99.90;;;;;;5095267;28;20043;-82
2022/01/01 06:45:27;;;;;;;47.15;19.35;;;10.10;99.90;;;;;;5078498;28;20118;-81
2022/01/01 06:47:52;;;;;;;41.35;17.65;;;12.00;99.90;;;;;;5094912;28;20051;-81
2022/01/01 06:50:18;;;;;;;47.95;19.02;;;12.30;99.90;;;;;;5092227;28;20051;-81
2022/01/01 06:52:45;;;;;;;44.00;18.67;;;10.30;99.90;;;;;;5074301;28;20063;-80
2022/01/01 06:55:12;;;;;;;46.35;17.60;;;10.20;99.90;;;;;;5090346;28;20472;-80
2022/01/01 06:57:41;;;;;;;52.90;19.45;;;10.40;99.90;;;;;;5078239;28;20075;-80
2022/01/01 07:00:09;;;;;;;43.08;17.27;;;10.10;99.90;;;;;;5093808;28;20035;-79
2022/01/01 07:02:46;;;;;;;42.33;18.35;;;10.60;99.90;;;;;;5094881;28;20537;-79
2022/01/01 07:05:12;;;;;;;42.35;18.25;;;10.30;99.90;;;;;;5095071;28;20040;-79
2022/01/01 07:07:39;;;;;;;51.80;20.40;;;10.40;99.90;;;;;;5094371;28;20040;-79
2022/01/01 07:10:07;;;;;;;50.28;20.45;;;10.50;99.90;;;;;;5095155;28;20035;-81
2022/01/01 07:12:36;;;;;;;51.35;21.27;;;10.60;99.90;;;;;;5086385;28;20044;-80
2022/01/01 07:15:04;;;;;;;53.30;23.65;;;11.10;99.90;;;;;;5087767;28;20391;-80
2022/01/01 07:17:30;;;;;;;56.28;23.58;;;10.60;99.90;;;;;;5094638;28;20062;-80
2022/01/01 07:19:55;;;;;;;55.67;23.50;;;10.50;99.90;;;;;;5094028;28;20040;-80
2022/01/01 07:22:21;;;;;;;52.53;23.27;;;11.50;99.90;;;;;;5093843;28;20166;-80
2022/01/01 07:24:47;;;;;;;65.93;23.95;;;10.20;99.90;;;;;;5076852;28;20089;-80
2022/01/01 07:27:13;;;;;;;64.07;26.75;;;10.20;99.90;;;;;;5094417;28;20151;-80
2022/01/01 07:29:41;;;;;;;58.47;26.52;;;10.10;99.90;;;;;;5093560;28;20074;-81
2022/01/01 07:32:07;;;;;;;65.68;28.52;;;12.70;99.90;;;;;;5094386;28;20518;-81
2022/01/01 07:34:33;;;;;;;70.40;29.23;;;10.60;99.90;;;;;;5094557;28;20040;-80
2022/01/01 07:36:59;;;;;;;64.28;27.38;;;10.50;99.90;;;;;;5093788;28;20055;-81
2022/01/01 07:39:25;;;;;;;60.63;28.08;;;10.30;99.90;;;;;;5075469;28;20074;-81
2022/01/01 07:41:51;;;;;;;58.90;30.25;;;;;;;;;;5106981;28;20048;-81
2022/01/01 07:44:16;;;;;;;58.97;28.90;;;10.70;99.90;;;;;;5081355;28;20110;-81
2022/01/01 07:46:42;;;;;;;65.68;30.25;;;10.80;99.90;;;;;;5077854;28;20131;-81
2022/01/01 07:49:07;;;;;;;67.75;31.38;;;10.70;99.90;;;;;;5093502;28;20140;-80
2022/01/01 07:51:33;;;;;;;65.50;32.55;;;10.60;99.90;;;;;;5079351;28;20039;-79
2022/01/01 07:53:59;;;;;;;61.42;31.25;;;10.40;99.90;;;;;;5073991;28;20115;-79
2022/01/01 07:56:25;;;;;;;59.85;29.73;;;12.00;99.90;;;;;;5073447;28;20370;-79
2022/01/01 07:58:51;;;;;;;58.30;30.40;;;10.80;99.90;;;;;;5079643;28;20063;-79
2022/01/01 08:01:16;;;;;;;57.90;30.90;;;11.80;99.90;;;;;;5094168;28;20442;-78
2022/01/01 08:03:43;;;;;;;57.20;30.17;;;;;;;;;;5093298;28;20535;-78
2022/01/01 08:06:09;;;;;;;62.47;30.35;;;;;;;;;;5093996;28;20155;-79
2022/01/01 08:08:35;;;;;;;52.58;28.58;;;;;;;;;;5083367;28;20049;-79
2022/01/01 08:11:00;;;;;;;65.80;31.63;;;10.90;99.90;;;;;;5072985;28;20040;-79
2022/01/01 08:13:26;;;;;;;53.05;28.55;;;10.50;99.90;;;;;;5094905;28;20058;-80
2022/01/01 08:15:55;;;;;;;47.28;25.17;;;10.90;99.90;;;;;;5077139;28;20139;-83
2022/01/01 08:18:21;;;;;;;51.05;27.20;;;10.80;99.90;;;;;;5093314;28;20067;-82
2022/01/01 08:20:48;;;;;;;49.45;26.58;;;10.90;99.90;;;;;;5093252;28;20048;-81
2022/01/01 08:23:14;;;;;;;54.72;26.83;;;10.60;99.90;;;;;;5093220;28;20050;-81
2022/01/01 08:25:40;;;;;;;50.53;26.17;;;11.00;99.90;;;;;;5127686;27;20058;-76
2022/01/01 08:28:07;;;;;;;51.05;26.90;;;;;;;;;;5084318;28;20392;-79
2022/01/01 08:30:34;;;;;;;52.50;26.92;;;;;;;;;;5123968;28;20055;-78
2022/01/01 08:33:03;;;;;;;52.30;27.30;;;;;;;;;;5078368;28;20419;-78
2022/01/01 08:35:30;;;;;;;51.97;26.67;;;;;;;;;;5097660;28;20055;-76
2022/01/01 08:37:56;;;;;;;50.13;26.27;;;;;;;;;;5097154;28;20032;-71
2022/01/01 08:40:23;;;;;;;52.33;24.90;;;;;;;;;;5079650;28;20118;-71
2022/01/01 08:42:49;;;;;;;45.63;23.98;;;;;;;;;;5088671;28;20086;-79
2022/01/01 08:45:15;;;;;;;43.78;22.73;;;;;;;;;;5059881;28;20036;-73
2022/01/01 08:47:42;;;;;;;49.65;23.92;;;;;;;;;;5065665;28;20561;-74
2022/01/01 08:50:08;;;;;;;42.05;22.92;;;;;;;;;;5131043;27;20165;-80
2022/01/01 08:52:34;;;;;;;42.85;23.85;;;;;;;;;;5097567;28;20407;-80
2022/01/01 08:55:00;;;;;;;101.35;74.30;;;;;;;;;;5097656;28;20406;-77
2022/01/01 08:57:26;;;;;;;53.53;30.73;;;;;;;;;;5068734;28;20036;-80
2022/01/01 08:59:53;;;;;;;47.97;24.60;;;11.40;99.90;;;;;;5077150;28;20048;-74
2022/01/01 09:02:19;;;;;;;42.60;22.60;;;11.40;99.90;;;;;;5094490;28;20044;-77
2022/01/01 09:04:45;;;;;;;33.65;19.38;;;11.10;99.90;;;;;;5097765;28;20066;-79
2022/01/01 09:07:12;;;;;;;41.67;23.50;;;;;;;;;;5097401;28;20032;-79
2022/01/01 09:09:39;;;;;;;40.33;22.92;;;11.10;99.90;;;;;;5097227;28;20488;-78
2022/01/01 09:12:06;;;;;;;42.20;21.52;;;11.00;99.90;;;;;;5096714;28;20043;-75
2022/01/01 09:14:33;;;;;;;41.35;25.35;;;11.30;99.90;;;;;;5088199;28;20047;-79
2022/01/01 09:17:02;;;;;;;47.00;24.73;;;11.20;99.90;;;;;;5075448;28;20048;-77
2022/01/01 09:19:28;;;;;;;43.08;22.80;;;11.50;99.90;;;;;;5074857;28;20055;-77
2022/01/01 09:21:53;;;;;;;36.38;21.27;;;11.50;99.90;;;;;;5090656;28;20040;-76
2022/01/01 09:24:19;;;;;;;40.70;20.35;;;11.00;99.90;;;;;;5075040;28;20042;-74
2022/01/01 09:26:45;;;;;;;33.95;18.65;;;;;;;;;;5092055;28;20717;-79
2022/01/01 09:29:10;;;;;;;39.33;19.17;;;11.10;99.90;;;;;;5075366;28;20047;-77
2022/01/01 09:31:38;;;;;;;34.90;17.95;;;11.30;99.90;;;;;;5096862;28;20574;-76
2022/01/01 09:34:05;;;;;;;31.38;16.95;;;11.60;99.90;;;;;;5091360;28;20064;-75
2022/01/01 09:36:31;;;;;;;35.22;17.48;;;11.60;99.90;;;;;;5090611;28;20044;-78
2022/01/01 09:38:57;;;;;;;31.27;16.58;;;13.80;99.90;;;;;;5094264;28;20448;-77
2022/01/01 09:41:23;;;;;;;33.25;18.50;;;11.90;99.90;;;;;;5095539;28;20035;-78
2022/01/01 09:43:53;;;;;;;32.13;16.67;;;11.60;99.90;;;;;;5092539;28;20062;-78
2022/01/01 09:46:18;;;;;;;39.47;20.00;;;11.50;99.90;;;;;;5092946;28;20040;-77
2022/01/01 09:48:45;;;;;;;33.55;18.33;;;11.70;99.90;;;;;;5075247;28;20047;-79
2022/01/01 09:51:11;;;;;;;29.23;17.48;;;11.50;99.90;;;;;;5075892;28;20042;-74
2022/01/01 09:53:37;;;;;;;30.92;18.60;;;11.50;99.90;;;;;;5093689;28;20388;-77
2022/01/01 09:56:04;;;;;;;26.20;16.83;;;13.40;99.90;;;;;;5093348;28;20173;-77
2022/01/01 09:58:32;;;;;;;31.02;17.08;;;11.50;99.90;;;;;;5077352;28;20093;-78
2022/01/01 10:00:59;;;;;;;28.50;16.27;;;11.50;99.90;;;;;;5093908;28;20039;-77
2022/01/01 10:03:36;;;;;;;27.20;15.82;;;11.40;99.90;;;;;;5094527;28;20458;-78
2022/01/01 10:06:21;;;;;;;29.00;16.65;;;12.40;99.90;;;;;;5077973;28;20070;-78
2022/01/01 10:09:03;;;;;;;27.13;13.88;;;11.60;99.90;;;;;;5076978;28;20054;-78
2022/01/01 10:11:30;;;;;;;23.42;14.57;;;11.00;99.90;;;;;;5093945;28;20035;-78
2022/01/01 10:13:56;;;;;;;32.20;14.32;;;11.70;99.90;;;;;;5094563;28;20040;-79
2022/01/01 10:16:22;;;;;;;28.77;13.98;;;11.40;99.90;;;;;;5078500;28;20047;-78
2022/01/01 10:18:51;;;;;;;27.85;14.27;;;11.20;99.90;;;;;;5094698;28;20050;-78
2022/01/01 10:21:27;;;;;;;29.90;14.45;;;11.20;99.90;;;;;;5092732;28;20043;-77
2022/01/01 10:23:55;;;;;;;24.17;12.65;;;13.50;99.90;;;;;;5091723;28;20054;-79
2022/01/01 10:29:17;;;;;;;24.77;12.57;;;;;;;;;;5092565;28;20127;-77
2022/01/01 10:31:53;;;;;;;25.33;11.43;;;;;;;;;;5093561;28;20055;-77
2022/01/01 10:34:20;;;;;;;22.83;11.18;;;;;;;;;;5092434;28;20077;-77
2022/01/01 10:36:48;;;;;;;19.20;12.13;;;;;;;;;;5093694;28;20162;-78
2022/01/01 10:39:15;;;;;;;23.20;12.05;;;;;;;;;;5093464;28;20043;-77
2022/01/01 10:41:53;;;;;;;18.80;10.15;;;;;;;;;;5093584;28;20054;-77
2022/01/01 10:44:34;;;;;;;24.08;11.18;;;12.20;99.90;;;;;;5063698;28;20043;-79
2022/01/01 10:47:05;;;;;;;22.33;11.73;;;12.10;99.90;;;;;;5094868;28;20449;-80
2022/01/01 10:49:50;;;;;;;24.95;10.23;;;12.10;99.90;;;;;;5077616;28;20046;-79
2022/01/01 10:52:28;;;;;;;19.53;10.70;;;12.40;99.90;;;;;;5093809;28;20070;-79
2022/01/01 10:54:56;;;;;;;21.00;10.98;;;12.10;99.90;;;;;;5094001;28;20467;-79
2022/01/01 10:57:33;;;;;;;17.38;9.57;;;12.30;99.90;;;;;;5094361;28;20050;-79
2022/01/01 11:00:12;;;;;;;18.77;9.52;;;12.00;99.90;;;;;;5094115;28;20040;-79
2022/01/01 11:02:40;;;;;;;21.08;9.65;;;12.10;99.90;;;;;;5094195;28;20175;-79
2022/01/01 11:05:09;;;;;;;17.67;8.18;;;12.10;99.90;;;;;;5093845;28;20062;-79
2022/01/01 11:07:35;;;;;;;15.52;7.97;;;12.10;99.90;;;;;;5075830;28;20043;-77
2022/01/01 11:10:03;;;;;;;19.33;9.45;;;12.20;99.90;;;;;;5092077;28;20502;-77
2022/01/01 11:12:30;;;;;;;17.23;9.32;;;12.10;99.90;;;;;;5091652;28;20119;-76
2022/01/01 11:14:59;;;;;;;17.90;9.02;;;13.30;99.90;;;;;;5086717;28;20044;-77
2022/01/01 11:17:25;;;;;;;19.83;9.35;;;13.00;99.90;;;;;;5072295;28;20131;-77
2022/01/01 11:19:51;;;;;;;17.05;9.18;;;13.20;99.90;;;;;;5103141;28;20130;-77
2022/01/01 11:22:18;;;;;;;19.33;9.77;;;13.40;99.90;;;;;;5086902;28;20096;-77
2022/01/01 11:24:45;;;;;;;17.13;9.10;;;12.70;99.90;;;;;;5105531;28;20051;-77
2022/01/01 11:27:10;;;;;;;19.00;9.18;;;13.10;99.90;;;;;;5090617;28;20150;-77
2022/01/01 11:29:39;;;;;;;17.77;9.10;;;12.50;99.90;;;;;;5110333;28;20123;-78
2022/01/01 11:32:08;;;;;;;19.02;9.75;;;12.90;99.90;;;;;;5091124;28;20059;-78
2022/01/01 11:34:38;;;;;;;17.00;9.10;;;12.50;99.90;;;;;;5075557;28;20045;-78
2022/01/01 11:37:05;;;;;;;18.60;9.43;;;13.50;99.90;;;;;;5073020;28;20043;-78
2022/01/01 11:39:31;;;;;;;29.92;14.07;;;12.80;99.90;;;;;;5093947;28;20043;-79
2022/01/01 11:42:16;;;;;;;22.10;13.35;;;12.70;99.90;;;;;;5093969;28;20047;-79
2022/01/01 11:44:50;;;;;;;17.92;11.15;;;12.20;99.90;;;;;;5093187;28;20454;-78
2022/01/01 11:47:19;;;;;;;27.57;12.17;;;13.60;99.90;;;;;;5093552;28;20044;-78
2022/01/01 11:49:46;;;;;;;19.45;10.85;;;12.40;99.90;;;;;;5092020;28;20040;-78
2022/01/01 11:52:11;;;;;;;21.27;9.75;;;12.40;99.90;;;;;;5090917;28;20126;-78
2022/01/01 11:54:40;;;;;;;16.90;9.40;;;13.10;99.90;;;;;;5091687;28;20472;-78
2022/01/01 11:57:19;;;;;;;20.17;10.88;;;13.10;99.90;;;;;;5091465;28;20077;-78
2022/01/01 11:59:45;;;;;;;21.02;10.55;;;12.30;99.90;;;;;;5074988;28;20043;-79
2022/01/01 12:02:31;;;;;;;17.70;10.20;;;12.50;99.90;;;;;;5124002;28;20052;-78
2022/01/01 12:05:09;;;;;;;18.92;9.30;;;12.30;99.90;;;;;;5090760;28;20043;-78
2022/01/01 12:07:51;;;;;;;18.20;10.18;;;12.20;99.90;;;;;;5111037;28;20100;-78
2022/01/01 12:10:19;;;;;;;17.20;9.48;;;12.20;99.90;;;;;;5094630;28;20050;-78
2022/01/01 12:13:05;;;;;;;16.60;10.13;;;12.30;99.90;;;;;;5129290;27;20801;-78
2022/01/01 12:15:43;;;;;;;19.90;8.98;;;12.20;99.90;;;;;;5058268;28;20483;-78
2022/01/01 12:18:22;;;;;;;18.98;9.13;;;12.30;99.90;;;;;;5074476;28;20567;-78
2022/01/01 12:21:02;;;;;;;19.20;9.73;;;12.10;99.90;;;;;;5095198;28;20041;-79
2022/01/01 12:23:34;;;;;;;17.98;9.25;;;12.30;99.90;;;;;;5094600;28;20454;-78
2022/01/01 12:26:04;;;;;;;20.80;9.45;;;12.70;99.90;;;;;;5094854;28;20081;-78
2022/01/01 12:28:32;;;;;;;17.00;10.00;;;12.80;99.90;;;;;;5095111;28;20040;-78
2022/01/01 12:31:06;;;;;;;17.48;10.27;;;12.80;99.90;;;;;;5093508;28;20040;-79
2022/01/01 12:33:37;;;;;;;19.13;9.13;;;12.60;99.90;;;;;;5094717;28;20047;-79
2022/01/01 12:36:08;;;;;;;16.05;8.07;;;12.60;99.90;;;;;;5090313;28;20183;-79
2022/01/01 12:38:35;;;;;;;17.48;8.88;;;12.40;99.90;;;;;;5094373;28;20047;-78
2022/01/01 12:41:11;;;;;;;18.50;9.05;;;12.90;99.90;;;;;;5094933;28;20062;-78
2022/01/01 12:43:47;;;;;;;14.45;8.07;;;13.20;99.90;;;;;;5095465;28;20048;-79
2022/01/01 12:46:15;;;;;;;19.58;7.90;;;12.30;99.90;;;;;;5089286;28;20044;-79
2022/01/01 12:48:41;;;;;;;11.60;8.13;;;12.70;99.90;;;;;;5074533;28;20055;-79
2022/01/01 12:51:28;;;;;;;19.05;8.23;;;12.90;99.90;;;;;;5091550;28;20044;-78
2022/01/01 12:54:01;;;;;;;15.02;7.93;;;13.40;99.90;;;;;;5092663;28;20488;-79
2022/01/01 12:56:28;;;;;;;14.35;7.63;;;12.40;99.90;;;;;;5107978;28;20046;-79